Time;durP1;ratioP1;P1;durP2;ratioP2;P2;SDS_P1;SDS_P2;PMS_P1;PMS_P2;Temp;Humidity;BMP_temperature;BMP_pressure;BME280_temperature;BME280_humidity;BME280_pressure;Samples;Min_cycle;Max_cycle;Signal;HPM_P1;HPM_P2
2022/07/01 00:00:19;;;;;;;31.63;18.63;;;;;;;-143.10;100.00;51108.56;5045292;28;20110;-67
2022/07/01 00:02:54;;;;;;;34.28;20.30;;;;;;;-143.10;100.00;51116.41;5025988;28;20544;-67
2022/07/01 00:05:49;;;;;;;32.67;19.55;;;;;;;-143.10;100.00;51132.06;5043602;28;20629;-67
2022/07/01 00:08:37;;;;;;;29.05;18.50;;;;;;;-143.10;100.00;51108.56;5038873;28;20045;-66
2022/07/01 00:11:26;;;;;;;31.67;17.35;;;;;;;-143.10;100.00;51128.16;5043994;28;20061;-67
2022/07/01 00:14:08;;;;;;;29.73;18.35;;;;;;;-143.10;100.00;51139.91;5039716;28;20057;-67
2022/07/01 00:16:57;;;;;;;30.70;17.30;;;;;;;-143.10;100.00;51124.22;5028026;28;20045;-66
2022/07/01 00:19:39;;;;;;;35.05;19.00;;;;;;;-143.10;100.00;51137.94;5044063;28;20051;-67
2022/07/01 00:22:34;;;;;;;30.10;18.38;;;;;;;-143.10;100.00;51143.81;5026647;28;20048;-67
2022/07/01 00:25:10;;;;;;;32.03;19.02;;;;;;;-143.10;100.00;51118.34;5042792;28;20080;-66
2022/07/01 00:28:05;;;;;;;33.17;18.73;;;;;;;-143.10;100.00;51118.34;5050095;28;20401;-67
2022/07/01 00:30:40;;;;;;;27.92;18.45;;;;;;;-143.10;100.00;51073.34;5042519;28;20044;-67
2022/07/01 00:33:29;;;;;;;35.45;18.63;;;;;;;-143.10;100.00;51139.91;5042022;28;20053;-66
2022/07/01 00:36:11;;;;;;;33.60;18.55;;;;;;;-143.10;100.00;51137.94;5027148;28;20058;-67
2022/07/01 00:39:00;;;;;;;32.17;19.65;;;;;;;-143.10;100.00;51139.91;5041996;28;20045;-66
2022/07/01 00:41:42;;;;;;;32.80;19.95;;;;;;;-143.10;100.00;51120.31;5030633;28;20430;-67
2022/07/01 00:44:43;;;;;;;33.65;20.08;;;;;;;-143.10;100.00;51128.16;5050099;28;20565;-66
2022/07/01 00:47:18;;;;;;;32.97;20.13;;;;;;;-143.10;100.00;51143.81;5054477;28;20072;-66
2022/07/01 00:50:10;;;;;;;34.20;19.33;;;;;;;-143.10;100.00;51143.81;5051710;28;20151;-66
2022/07/01 00:52:59;;;;;;;35.80;20.17;;;;;;;-143.10;100.00;51132.06;5044104;28;20053;-66
2022/07/01 00:55:42;;;;;;;37.92;21.88;;;;;;;-143.10;100.00;51167.31;5044463;28;20477;-66
2022/07/01 00:58:35;;;;;;;37.22;21.67;;;;;;;-143.10;100.00;51153.59;5038635;28;20114;-66
2022/07/01 01:01:24;;;;;;;37.17;22.10;;;;;;;-143.10;100.00;51128.16;5046135;28;20076;-67
2022/07/01 01:04:06;;;;;;;33.97;20.77;;;;;;;-143.10;100.00;51120.31;5045457;28;20290;-66
2022/07/01 01:07:02;;;;;;;35.45;20.25;;;;;;;-143.10;100.00;51118.34;5051563;28;20076;-67
2022/07/01 01:09:51;;;;;;;32.70;18.83;;;;;;;-143.10;100.00;51157.50;5062105;27;20413;-65
2022/07/01 01:12:40;;;;;;;34.00;19.38;;;;;;;-143.10;100.00;51124.22;5058022;28;20053;-67
2022/07/01 01:15:27;;;;;;;36.17;19.15;;;;;;;-143.10;100.00;51132.06;5058160;28;20059;-66
2022/07/01 01:18:16;;;;;;;31.38;18.27;;;;;;;-143.10;100.00;51104.66;5057793;28;20041;-66
2022/07/01 01:21:05;;;;;;;30.63;17.42;;;;;;;-143.10;100.00;51128.16;5048772;28;20049;-66
2022/07/01 01:23:47;;;;;;;33.03;17.58;;;;;;;-143.10;100.00;51149.69;5047671;28;20049;-66
2022/07/01 01:26:38;;;;;;;32.90;17.92;;;;;;;-143.10;100.00;51106.63;5048030;28;20144;-65
2022/07/01 01:29:21;;;;;;;29.88;17.38;;;;;;;-143.10;100.00;51151.66;5047991;28;20053;-66
2022/07/01 01:32:12;;;;;;;26.42;15.38;;;;;;;-143.10;100.00;51114.44;5046193;28;20069;-66
2022/07/01 01:34:54;;;;;;;28.80;15.85;;;;;;;-143.10;100.00;51134.03;5027562;28;20081;-65
2022/07/01 01:37:43;;;;;;;31.40;15.48;;;;;;;-143.10;100.00;51104.66;5045434;28;20053;-66
2022/07/01 01:40:25;;;;;;;32.65;17.05;;;;;;;-143.10;100.00;51124.22;5047370;28;20544;-67
2022/07/01 01:43:14;;;;;;;26.90;15.73;;;;;;;-143.10;100.00;51145.78;5043714;28;20044;-67
2022/07/01 01:46:03;;;;;;;31.05;16.17;;;;;;;-143.10;100.00;51153.59;5046248;28;20146;-67
2022/07/01 01:48:46;;;;;;;31.85;16.85;;;;;;;-143.10;100.00;51132.06;5047713;28;20147;-66
2022/07/01 01:51:41;;;;;;;32.42;19.33;;;;;;;-143.10;100.00;51116.41;5029783;28;20463;-66
2022/07/01 01:54:16;;;;;;;42.05;22.52;;;;;;;-143.10;100.00;51167.31;5045811;28;20044;-66
2022/07/01 01:57:06;;;;;;;31.95;17.88;;;;;;;-143.10;100.00;51135.97;5045389;28;20106;-66
2022/07/01 01:59:49;;;;;;;32.67;18.80;;;;;;;-143.10;100.00;51128.16;5046968;28;20091;-66
2022/07/01 02:02:44;;;;;;;35.17;19.55;;;;;;;-143.10;100.00;51134.03;5029609;28;20041;-67
2022/07/01 02:05:35;;;;;;;29.25;16.70;;;;;;;-143.10;100.00;51143.81;5038644;28;20048;-67
2022/07/01 02:08:24;;;;;;;29.98;17.80;;;;;;;-143.10;100.00;51120.31;5015989;28;20050;-67
2022/07/01 02:11:19;;;;;;;28.27;16.98;;;;;;;-143.10;100.00;51137.94;5027307;28;20061;-66
2022/07/01 02:13:54;;;;;;;28.17;17.05;;;;;;;-143.10;100.00;51130.09;5026554;28;20133;-68
2022/07/01 02:16:43;;;;;;;35.90;19.75;;;;;;;-143.10;100.00;51110.53;5010021;28;20720;-68
2022/07/01 02:19:25;;;;;;;34.95;18.52;;;;;;;-143.10;100.00;51120.31;5004477;28;20037;-67
2022/07/01 02:22:20;;;;;;;31.73;18.52;;;;;;;-143.10;100.00;51139.91;5007673;28;20058;-67
2022/07/01 02:24:55;;;;;;;36.70;19.30;;;;;;;-143.10;100.00;51135.97;5007856;28;20050;-67
2022/07/01 02:27:50;;;;;;;30.45;18.38;;;;;;;-143.10;100.00;51120.31;5031660;28;20053;-67
2022/07/01 02:30:26;;;;;;;37.55;20.58;;;;;;;-143.10;100.00;51163.38;5029007;28;20500;-67
2022/07/01 02:33:15;;;;;;;35.38;19.88;;;;;;;-143.10;100.00;51108.56;5031937;28;20107;-67
2022/07/01 02:35:57;;;;;;;37.88;21.05;;;;;;;-143.10;100.00;51124.22;5033011;28;20072;-67
2022/07/01 02:38:46;;;;;;;36.35;19.60;;;;;;;-143.10;100.00;51128.16;5028255;28;20052;-68
2022/07/01 02:42:22;;;;;;;34.38;19.75;;;;;;;-143.10;100.00;51096.81;5029111;28;20057;-65
2022/07/01 02:44:37;;;;;;;38.22;21.45;;;;;;;-143.10;100.00;51135.97;5009255;28;20049;-66
2022/07/01 02:47:27;;;;;;;38.08;21.10;;;;;;;-143.10;100.00;51167.31;5011715;28;20481;-66
2022/07/01 02:50:11;;;;;;;35.67;21.15;;;;;;;-143.10;100.00;51165.34;5026499;28;20045;-64
2022/07/01 02:53:05;;;;;;;39.53;21.92;;;;;;;-143.10;100.00;51147.72;5027676;28;20081;-65
2022/07/01 02:55:54;;;;;;;43.95;21.70;;;;;;;-143.10;100.00;51147.72;5027222;28;20791;-66
2022/07/01 02:58:43;;;;;;;34.10;20.27;;;;;;;-143.10;100.00;51132.06;5026420;28;20518;-65
2022/07/01 03:01:38;;;;;;;31.77;19.58;;;;;;;-143.10;100.00;51137.94;5026310;28;20049;-66
2022/07/01 03:04:13;;;;;;;28.63;17.70;;;;;;;-143.10;100.00;51135.97;5026275;28;20053;-66
2022/07/01 03:07:02;;;;;;;33.17;19.67;;;;;;;-143.10;100.00;51171.22;5026873;28;20049;-66
2022/07/01 03:09:51;;;;;;;33.05;18.73;;;;;;;-143.10;100.00;51149.69;5040113;28;20099;-66
2022/07/01 03:12:47;;;;;;;32.13;19.10;;;;;;;-143.10;100.00;51137.94;5001708;28;20350;-65
2022/07/01 03:15:22;;;;;;;32.85;17.60;;;;;;;-143.10;100.00;51135.97;5026315;28;20057;-66
2022/07/01 03:18:17;;;;;;;26.95;15.43;;;;;;;-143.10;100.00;51135.97;5035193;28;20045;-66
2022/07/01 03:20:52;;;;;;;26.88;15.90;;;;;;;-143.10;100.00;51135.97;5046436;28;20068;-66
2022/07/01 03:23:48;;;;;;;30.63;15.77;;;;;;;-143.10;100.00;51153.59;5030780;28;20046;-66
2022/07/01 03:26:23;;;;;;;24.75;15.52;;;;;;;-143.10;100.00;51149.69;5027244;28;20060;-65
2022/07/01 03:29:18;;;;;;;29.30;15.32;;;;;;;-143.10;100.00;51179.06;5006436;28;20046;-65
2022/07/01 03:32:08;;;;;;;24.48;14.50;;;;;;;-143.10;100.00;51186.88;5007091;28;20038;-66
2022/07/01 03:34:52;;;;;;;27.27;14.77;;;;;;;-143.10;100.00;51151.66;5006149;28;20475;-66
2022/07/01 03:37:41;;;;;;;23.13;13.50;;;;;;;-143.10;100.00;51139.91;5042515;28;20048;-67
2022/07/01 03:40:23;;;;;;;22.88;14.60;;;;;;;-143.10;100.00;51159.47;5027915;28;20134;-66
2022/07/01 03:43:12;;;;;;;23.90;15.40;;;;;;;-143.10;100.00;51143.81;5025625;28;20041;-67
2022/07/01 03:46:01;;;;;;;24.25;14.30;;;;;;;-143.10;100.00;51120.31;5006476;28;20069;-66
2022/07/01 03:48:44;;;;;;;23.83;14.85;;;;;;;-143.10;100.00;51147.72;5005962;28;20057;-66
2022/07/01 03:51:33;;;;;;;25.90;15.38;;;;;;;-143.10;100.00;51147.72;5005766;28;20678;-66
2022/07/01 03:54:30;;;;;;;23.85;13.88;;;;;;;-143.10;100.00;51139.91;4988939;28;20050;-67
2022/07/01 03:57:21;;;;;;;26.88;14.32;;;;;;;-143.10;100.00;51122.28;5016877;28;20100;-66
2022/07/01 04:00:03;;;;;;;21.23;14.05;;;;;;;-143.10;100.00;51098.78;5008394;28;20123;-67
2022/07/01 04:03:03;;;;;;;23.80;14.25;;;;;;;-143.10;100.00;51182.97;5024576;28;20057;-66
2022/07/01 04:05:39;;;;;;;22.83;14.23;;;;;;;-143.10;100.00;51143.81;5024950;28;20049;-65
2022/07/01 04:08:34;;;;;;;22.23;14.32;;;;;;;-143.10;100.00;51161.44;5040996;28;20061;-65
2022/07/01 04:11:17;;;;;;;23.75;13.95;;;;;;;-143.10;100.00;51157.50;5008043;28;20455;-66
2022/07/01 04:14:06;;;;;;;24.77;15.50;;;;;;;-143.10;100.00;51147.72;5037293;28;20416;-65
2022/07/01 04:16:55;;;;;;;25.48;15.95;;;;;;;-143.10;100.00;51159.47;5043102;28;20045;-66
2022/07/01 04:19:44;;;;;;;28.13;16.35;;;;;;;-143.10;100.00;51139.91;5042460;28;20057;-66
2022/07/01 04:22:33;;;;;;;28.98;16.58;;;;;;;-143.10;100.00;51161.44;5043700;28;20064;-64
2022/07/01 04:25:22;;;;;;;29.38;17.80;;;;;;;-143.10;100.00;51167.31;5043190;28;20102;-64
2022/07/01 04:28:04;;;;;;;29.17;17.70;;;;;;;-143.10;100.00;51139.91;5044910;28;20059;-66
2022/07/01 04:30:53;;;;;;;30.27;16.75;;;;;;;-143.10;100.00;51165.34;5044891;28;20122;-65
2022/07/01 04:33:51;;;;;;;31.55;18.75;;;;;;;-143.10;100.00;51169.25;5013206;28;20060;-66
2022/07/01 04:36:26;;;;;;;38.00;19.80;;;;;;;-143.10;100.00;51159.47;5039523;28;20139;-65
2022/07/01 04:39:16;;;;;;;36.95;20.40;;;;;;;-143.10;100.00;51165.34;5049135;28;20469;-66
2022/07/01 04:42:01;;;;;;;34.13;20.15;;;;;;;-143.10;100.00;51194.72;5049703;28;20530;-65
2022/07/01 04:44:56;;;;;;;37.80;21.50;;;;;;;-143.10;100.00;51175.13;5048793;28;20485;-64
2022/07/01 04:47:32;;;;;;;39.92;21.75;;;;;;;-143.10;100.00;51177.09;5049033;28;20037;-67
2022/07/01 04:50:21;;;;;;;40.78;22.55;;;;;;;-143.10;100.00;51155.56;5047636;28;20044;-64
2022/07/01 04:53:10;;;;;;;47.10;23.88;;;;;;;-143.10;100.00;51175.13;5047712;28;20118;-65
2022/07/01 04:55:52;;;;;;;43.65;23.50;;;;;;;-143.10;100.00;51163.38;5048021;28;20037;-65
2022/07/01 04:58:41;;;;;;;45.60;23.77;;;;;;;-143.10;100.00;51124.22;5048680;28;20748;-66
2022/07/01 05:01:30;;;;;;;40.15;22.02;;;;;;;-143.10;100.00;51153.59;5048433;28;20512;-64
2022/07/01 05:04:12;;;;;;;41.42;24.10;;;;;;;-143.10;100.00;51143.81;5048474;28;20056;-65
2022/07/01 05:07:01;;;;;;;40.65;23.55;;;;;;;-143.10;100.00;51143.81;5048758;28;20036;-65
2022/07/01 05:09:50;;;;;;;42.22;23.70;;;;;;;-143.10;100.00;51181.00;5048098;28;20084;-64
2022/07/01 05:12:31;;;;;;;49.70;24.80;;;;;;;-143.10;100.00;51184.94;5031630;28;20060;-66
2022/07/01 05:15:21;;;;;;;43.97;24.95;;;;;;;-143.10;100.00;51184.94;5028237;28;20060;-65
2022/07/01 05:24:17;;;;;;;44.15;22.70;;;;;;;-143.10;100.00;51155.56;5029326;28;20466;-65
2022/07/01 05:27:07;;;;;;;43.63;23.63;;;;;;;-143.10;100.00;51161.44;5043340;28;20049;-65
2022/07/01 05:29:49;;;;;;;48.50;23.95;;;;;;;-143.10;100.00;51208.41;5047462;28;20041;-66
2022/07/01 05:32:38;;;;;;;47.28;24.50;;;;;;;-143.10;100.00;51155.56;5020247;28;20359;-66
2022/07/01 05:35:19;;;;;;;41.15;23.52;;;;;;;-143.10;100.00;51153.59;5043660;28;20428;-67
2022/07/01 05:38:09;;;;;;;40.55;23.90;;;;;;;-143.10;100.00;51145.78;5024811;28;20049;-67
2022/07/01 05:40:52;;;;;;;45.72;24.63;;;;;;;-143.10;100.00;51179.06;5026268;28;20053;-68
2022/07/01 05:43:41;;;;;;;42.33;23.55;;;;;;;-143.10;100.00;51163.38;5019462;28;20037;-69
2022/07/01 05:46:36;;;;;;;42.15;22.92;;;;;;;-143.10;100.00;51155.56;5028170;28;20060;-68
2022/07/01 05:49:12;;;;;;;45.88;25.20;;;;;;;-143.10;100.00;51167.31;5026623;28;20077;-69
2022/07/01 05:52:07;;;;;;;40.42;23.30;;;;;;;-143.10;100.00;51155.56;5028441;28;20045;-69
2022/07/01 05:54:42;;;;;;;42.33;23.88;;;;;;;-143.10;100.00;51167.31;5028089;28;20053;-69
2022/07/01 05:57:37;;;;;;;47.70;26.23;;;;;;;-143.10;100.00;51155.56;5026016;28;20052;-69
2022/07/01 06:00:13;;;;;;;44.05;25.30;;;;;;;-143.10;100.00;51181.00;5028033;28;20417;-69
2022/07/01 06:03:09;;;;;;;46.35;25.48;;;;;;;-143.10;100.00;51196.69;5008742;28;20049;-67
2022/07/01 06:05:44;;;;;;;45.25;25.98;;;;;;;-143.10;100.00;51159.47;5028110;28;20480;-66
2022/07/01 06:08:40;;;;;;;42.72;24.73;;;;;;;-143.10;100.00;51155.56;5027042;28;20422;-68
2022/07/01 06:11:28;;;;;;;44.72;23.67;;;;;;;-143.10;100.00;51159.47;5034209;28;20048;-67
2022/07/01 06:14:23;;;;;;;46.63;23.55;;;;;;;-143.10;100.00;51186.88;5046870;28;20044;-66
2022/07/01 06:16:59;;;;;;;37.38;22.23;;;;;;;-143.10;100.00;51157.50;5047857;28;20115;-68
2022/07/01 06:19:54;;;;;;;40.22;21.65;;;;;;;-143.10;100.00;51157.50;5047063;28;20060;-67
2022/07/01 06:22:29;;;;;;;36.17;20.67;;;;;;;-143.10;100.00;51190.81;5047707;28;20048;-67
2022/07/01 06:25:24;;;;;;;38.88;20.73;;;;;;;-143.10;100.00;51145.78;5047656;28;20059;-67
2022/07/01 06:27:59;;;;;;;31.95;19.10;;;;;;;-143.10;100.00;51137.94;5047336;28;20053;-67
2022/07/01 06:30:55;;;;;;;32.05;19.13;;;;;;;-143.10;100.00;51171.22;5046966;28;20114;-67
2022/07/01 06:33:30;;;;;;;29.20;17.13;;;;;;;-143.10;100.00;51175.13;5031276;28;20107;-68
2022/07/01 06:36:25;;;;;;;33.17;18.95;;;;;;;-143.10;100.00;51163.38;5043758;28;20045;-70
2022/07/01 06:39:00;;;;;;;33.65;18.35;;;;;;;-143.10;100.00;51147.72;5047078;28;20528;-69
2022/07/01 06:41:50;;;;;;;25.02;16.38;;;;;;;-143.10;100.00;51155.56;5046955;28;20045;-69
2022/07/01 06:44:32;;;;;;;25.88;16.23;;;;;;;-143.10;100.00;51161.44;5046737;28;20397;-69
2022/07/01 06:47:22;;;;;;;23.90;15.20;;;;;;;-143.10;100.00;51157.50;5046131;28;20045;-69
2022/07/01 06:50:12;;;;;;;23.63;14.35;;;;;;;-143.10;100.00;51177.09;5046176;28;20055;-69
2022/07/01 06:53:07;;;;;;;21.23;15.02;;;;;;;-143.10;100.00;51147.72;5047085;28;20111;-69
2022/07/01 06:55:42;;;;;;;23.58;15.68;;;;;;;-143.10;100.00;51132.06;5046833;28;20435;-69
2022/07/01 06:58:32;;;;;;;27.85;15.98;;;;;;;-143.10;100.00;51141.84;5028348;28;20052;-69
2022/07/01 07:01:15;;;;;;;23.55;16.20;;;;;;;-143.10;100.00;51139.91;5046174;28;20048;-68
2022/07/01 07:04:18;;;;;;;21.48;14.68;;;;;;;-143.10;100.00;51143.81;5046257;28;20056;-68
2022/07/01 07:07:27;;;;;;;18.92;12.65;;;;;;;-143.10;100.00;51171.22;5046160;28;20052;-67
2022/07/01 07:10:16;;;;;;;17.65;10.90;;;;;;;-143.10;100.00;51175.13;5045340;28;20405;-68
2022/07/01 07:13:04;;;;;;;16.08;11.27;;;;;;;-143.10;100.00;51155.56;5045714;28;20056;-67
2022/07/01 07:16:00;;;;;;;17.80;11.63;;;;;;;-143.10;100.00;51159.47;5046203;28;20084;-69
2022/07/01 07:18:35;;;;;;;18.92;12.82;;;;;;;-143.10;100.00;51182.97;5045860;28;20492;-68
2022/07/01 07:21:24;;;;;;;18.20;13.35;;;;;;;-143.10;100.00;51132.06;5045455;28;20123;-68
2022/07/01 07:24:13;;;;;;;18.55;12.68;;;;;;;-143.10;100.00;51173.19;5048252;28;20060;-70
2022/07/01 07:26:55;;;;;;;19.65;13.73;;;;;;;-143.10;100.00;51155.56;5048746;28;20059;-68
2022/07/01 07:29:44;;;;;;;17.30;12.43;;;;;;;-143.10;100.00;51173.19;5045760;28;20492;-69
2022/07/01 07:32:25;;;;;;;17.10;12.15;;;;;;;-143.10;100.00;51159.47;5045481;28;20471;-69
2022/07/01 07:35:16;;;;;;;17.85;12.68;;;;;;;-143.10;100.00;51159.47;5045791;28;20045;-68
2022/07/01 07:37:58;;;;;;;15.23;11.27;;;;;;;-143.10;100.00;51153.59;5045283;28;20075;-70
2022/07/01 07:40:47;;;;;;;14.20;10.95;;;;;;;-143.10;100.00;51135.97;5044569;28;20088;-69
2022/07/01 07:43:28;;;;;;;16.65;11.18;;;;;;;-143.10;100.00;51135.97;5047735;28;20048;-69
2022/07/01 07:46:18;;;;;;;15.82;9.98;;;;;;;-143.10;100.00;51147.72;5037212;28;20048;-69
2022/07/01 07:49:00;;;;;;;16.92;10.18;;;;;;;-143.10;100.00;51149.69;5053473;28;20676;-69
2022/07/01 07:51:49;;;;;;;12.00;9.55;;;;;;;-143.10;100.00;51132.06;5055395;28;20056;-69
2022/07/01 07:54:31;;;;;;;13.98;10.30;;;;;;;-143.10;100.00;51181.00;5047094;28;20047;-67
2022/07/01 07:57:21;;;;;;;12.98;9.10;;;;;;;-143.10;100.00;51151.66;5053569;28;20075;-68
2022/07/01 08:00:05;;;;;;;13.80;9.52;;;;;;;-143.10;100.00;51181.00;5049124;28;20049;-69
2022/07/01 08:02:55;;;;;;;12.77;9.82;;;;;;;-143.10;100.00;51151.66;5044736;28;20056;-68
2022/07/01 08:05:37;;;;;;;12.70;8.85;;;;;;;-143.10;100.00;51179.06;5057606;28;20072;-70
2022/07/01 08:08:27;;;;;;;16.80;9.43;;;;;;;-143.10;100.00;51132.06;5047058;28;20118;-68
2022/07/01 08:11:09;;;;;;;15.30;8.95;;;;;;;-143.10;100.00;51169.25;5049404;28;20055;-68
2022/07/01 08:13:58;;;;;;;15.60;8.38;;;;;;;-143.10;100.00;51147.72;5064836;28;20747;-69
2022/07/01 08:16:41;;;;;;;11.40;8.38;;;;;;;-143.10;100.00;51165.34;5063912;28;20067;-70
2022/07/01 08:19:30;;;;;;;11.68;7.90;;;;;;;-143.10;100.00;51153.59;5061714;28;20051;-68
2022/07/01 08:22:12;;;;;;;9.02;7.38;;;;;;;-143.10;100.00;51167.31;5062650;28;20041;-68
2022/07/01 08:25:02;;;;;;;14.90;8.20;;;;;;;-143.10;100.00;51173.19;5070168;28;20044;-70
2022/07/01 08:27:45;;;;;;;11.50;8.48;;;;;;;-143.10;100.00;51143.81;5044055;28;20041;-69
2022/07/01 08:30:34;;;;;;;13.65;7.90;;;;;;;-143.10;100.00;51159.47;5045985;28;20052;-69
2022/07/01 08:33:17;;;;;;;11.75;8.45;;;;;;;-143.10;100.00;51135.97;5044773;28;20119;-68
2022/07/01 08:36:06;;;;;;;11.57;7.72;;;;;;;-143.10;100.00;51134.03;5029399;28;20061;-68
2022/07/01 08:38:49;;;;;;;11.77;8.48;;;;;;;-143.10;100.00;51143.81;4990078;28;20046;-69
2022/07/01 08:41:38;;;;;;;11.57;8.25;;;;;;;-143.10;100.00;51155.56;5024869;28;20044;-69
2022/07/01 08:44:20;;;;;;;11.25;8.52;;;;;;;-143.10;100.00;51130.09;5024343;28;20045;-69
2022/07/01 08:47:10;;;;;;;12.18;8.05;;;;;;;-143.10;100.00;51147.72;5024562;28;20797;-69
2022/07/01 08:49:52;;;;;;;12.25;9.18;;;;;;;-143.10;100.00;51165.34;5024489;28;20050;-70
2022/07/01 08:52:41;;;;;;;13.43;8.43;;;;;;;-143.10;100.00;51098.78;5024769;28;20124;-69
2022/07/01 08:55:24;;;;;;;11.23;8.65;;;;;;;-143.10;100.00;51184.94;5024247;28;20076;-69
2022/07/01 08:58:13;;;;;;;13.02;8.10;;;;;;;-143.10;100.00;51116.41;5024153;28;20060;-68
2022/07/01 09:01:13;;;;;;;16.13;8.68;;;;;;;-143.10;100.00;51167.31;5006895;28;20053;-69
2022/07/01 09:04:23;;;;;;;11.23;7.78;;;;;;;-143.10;100.00;51128.16;5029013;28;20044;-69
2022/07/01 09:07:18;;;;;;;13.70;7.55;;;;;;;-143.10;100.00;51122.28;5043639;28;20444;-69
2022/07/01 09:09:53;;;;;;;8.38;6.65;;;;;;;-143.10;100.00;51135.97;5044553;28;20057;-69
2022/07/01 09:12:48;;;;;;;13.80;7.10;;;;;;;-143.10;100.00;51122.28;5043797;28;20064;-69
2022/07/01 09:15:39;;;;;;;13.13;7.65;;;;;;;-143.10;100.00;51126.19;5041038;28;20053;-69
2022/07/01 09:18:28;;;;;;;12.82;7.90;;;;;;;-143.10;100.00;51132.06;5042770;28;20057;-67
2022/07/01 09:21:13;;;;;;;11.48;7.68;;;;;;;-143.10;100.00;51120.31;5039179;28;20068;-69
2022/07/01 09:24:10;;;;;;;12.48;8.18;;;;;;;-143.10;100.00;51147.72;5047190;28;20064;-68
2022/07/01 09:27:12;;;;;;;10.65;8.07;;;;;;;-143.10;100.00;51159.47;5044069;28;20059;-70
2022/07/01 09:29:52;;;;;;;10.18;7.85;;;;;;;-143.10;100.00;51132.06;5044538;28;20049;-68
2022/07/01 09:32:41;;;;;;;15.73;9.65;;;;;;;-143.10;100.00;51149.69;5047365;28;20068;-68
2022/07/01 09:35:29;;;;;;;11.93;7.82;;;;;;;-143.10;100.00;51177.09;5045225;28;20049;-68
2022/07/01 09:38:30;;;;;;;11.23;7.22;;;;;;;-143.10;100.00;51153.59;5044666;28;20443;-69
2022/07/01 09:41:11;;;;;;;10.23;6.63;;;;;;;-143.10;100.00;51186.88;5043782;28;20045;-69
2022/07/01 09:44:07;;;;;;;9.77;6.50;;;;;;;-143.10;100.00;51179.06;5045259;28;20136;-69
2022/07/01 09:47:05;;;;;;;10.10;6.13;;;;;;;-143.10;100.00;51139.91;5043908;28;20136;-69
2022/07/01 09:49:55;;;;;;;9.27;6.20;;;;;;;-143.10;100.00;51130.09;5045520;28;20056;-69
2022/07/01 09:52:45;;;;;;;12.75;7.30;;;;;;;-143.10;100.00;51135.97;5044229;28;20049;-69
2022/07/01 09:55:27;;;;;;;8.55;6.13;;;;;;;-143.10;100.00;51130.09;5045759;28;20068;-69
2022/07/01 09:58:16;;;;;;;17.05;5.93;;;;;;;-143.10;100.00;51171.22;5044449;28;20301;-69
2022/07/01 10:00:58;;;;;;;10.75;6.90;;;;;;;-143.10;100.00;51116.41;5047035;28;20045;-69
2022/07/01 10:03:47;;;;;;;12.85;7.25;;;;;;;-143.10;100.00;51132.06;5046817;28;20045;-67
2022/07/01 10:06:38;;;;;;;11.13;6.63;;;;;;;-143.10;100.00;51120.31;5028287;28;20044;-68
2022/07/01 10:09:48;;;;;;;10.32;6.80;;;;;;;-143.10;100.00;51137.94;5028903;28;20053;-69
2022/07/01 10:12:58;;;;;;;12.40;8.37;;;;;;;-143.10;100.00;51139.91;5046464;28;20044;-68
2022/07/01 10:15:54;;;;;;;10.15;7.45;;;;;;;-143.10;100.00;51134.03;5029004;28;20074;-70
2022/07/01 10:18:30;;;;;;;10.45;7.85;;;;;;;-143.10;100.00;51171.22;5006429;28;20356;-69
2022/07/01 10:21:30;;;;;;;12.25;7.90;;;;;;;-143.10;100.00;51143.81;5006825;28;20556;-70
2022/07/01 10:24:25;;;;;;;11.25;8.13;;;;;;;-143.10;100.00;51112.50;5006856;28;20041;-69
2022/07/01 10:27:30;;;;;;;11.45;8.27;;;;;;;-143.10;100.00;51141.84;5011333;28;20480;-70
2022/07/01 10:30:15;;;;;;;14.13;8.73;;;;;;;-143.10;100.00;51128.16;5046225;28;20048;-69
2022/07/01 10:33:04;;;;;;;11.27;8.52;;;;;;;-143.10;100.00;51147.72;5013694;28;20474;-70
2022/07/01 10:35:54;;;;;;;11.57;8.55;;;;;;;-143.10;100.00;51149.69;5026652;28;20060;-68
2022/07/01 10:39:06;;;;;;;12.80;8.70;;;;;;;-143.10;100.00;51128.16;5032800;28;20110;-68
2022/07/01 10:42:05;;;;;;;13.13;9.23;;;;;;;-143.10;100.00;51132.06;5033579;28;20136;-69
2022/07/01 10:45:02;;;;;;;14.73;8.60;;;;;;;-143.10;100.00;51143.81;5032313;28;20124;-70
2022/07/01 10:47:46;;;;;;;18.42;9.25;;;;;;;-143.10;100.00;51147.72;5033100;28;20049;-69
2022/07/01 10:50:38;;;;;;;12.10;8.60;;;;;;;-143.10;100.00;51141.84;5041436;28;20107;-71
2022/07/01 10:53:29;;;;;;;10.85;7.60;;;;;;;-143.10;100.00;51155.56;5047423;28;20041;-69
2022/07/01 10:56:25;;;;;;;13.75;7.70;;;;;;;-143.10;100.00;51128.16;5029466;28;20076;-69
2022/07/01 10:59:03;;;;;;;11.20;8.07;;;;;;;-143.10;100.00;51128.16;5047104;28;20548;-69
2022/07/01 11:01:52;;;;;;;11.93;7.78;;;;;;;-143.10;100.00;51143.81;5031905;28;20069;-69
2022/07/01 11:04:44;;;;;;;12.52;8.30;;;;;;;-143.10;100.00;51126.19;5037753;28;20049;-69
2022/07/01 11:07:47;;;;;;;9.15;7.32;;;;;;;-143.10;100.00;51135.97;5026582;28;20053;-69
2022/07/01 11:10:22;;;;;;;13.13;7.43;;;;;;;-143.10;100.00;51135.97;5026534;28;20051;-68
2022/07/01 11:13:20;;;;;;;10.75;7.72;;;;;;;-143.10;100.00;51190.81;5026911;28;20049;-68
2022/07/01 11:16:09;;;;;;;10.20;7.00;;;;;;;-143.10;100.00;51118.34;5029604;28;20152;-68
2022/07/01 11:18:59;;;;;;;12.23;7.65;;;;;;;-143.10;100.00;51128.16;5031408;28;20272;-69
2022/07/01 11:21:49;;;;;;;9.73;6.50;;;;;;;-143.10;100.00;51143.81;5010507;28;20041;-68
2022/07/01 11:24:38;;;;;;;9.80;8.20;;;;;;;-143.10;100.00;51135.97;5007374;28;20057;-69
2022/07/01 11:27:24;;;;;;;9.80;7.00;;;;;;;-143.10;100.00;51171.22;5011454;28;20050;-69
2022/07/01 11:30:17;;;;;;;12.27;6.60;;;;;;;-143.10;100.00;51132.06;5003642;28;20105;-68
2022/07/01 11:33:04;;;;;;;11.93;6.75;;;;;;;-143.10;100.00;51143.81;4999274;28;20057;-68
2022/07/01 11:42:04;;;;;;;11.15;6.60;;;;;;;-143.10;100.00;51134.03;5002782;28;20057;-68
2022/07/01 11:44:46;;;;;;;9.45;6.40;;;;;;;-143.10;100.00;51159.47;5015590;28;20061;-68
2022/07/01 11:47:36;;;;;;;14.80;7.50;;;;;;;-143.10;100.00;51132.06;5016696;28;20045;-68
2022/07/01 11:50:19;;;;;;;10.35;7.53;;;;;;;-143.10;100.00;51167.31;5014738;28;20733;-68
2022/07/01 11:53:08;;;;;;;11.43;7.68;;;;;;;-143.10;100.00;51159.47;5012995;28;20120;-67
2022/07/01 11:55:50;;;;;;;14.02;7.00;;;;;;;-143.10;100.00;51130.09;5016408;28;20051;-68
2022/07/01 11:58:58;;;;;;;12.52;8.40;;;;;;;-143.10;100.00;51155.56;5014519;28;20049;-69
2022/07/01 12:01:40;;;;;;;11.30;7.97;;;;;;;-143.10;100.00;51120.31;5013679;28;20050;-69
2022/07/01 12:04:29;;;;;;;12.65;7.90;;;;;;;-143.10;100.00;51132.06;5024154;28;20527;-68
2022/07/01 12:07:12;;;;;;;15.18;9.02;;;;;;;-143.10;100.00;51132.06;5045500;28;20053;-69
2022/07/01 12:10:03;;;;;;;14.07;8.13;;;;;;;-143.10;100.00;51132.06;5031753;28;20481;-70
2022/07/01 12:12:46;;;;;;;12.35;8.10;;;;;;;-143.10;100.00;51128.16;5026383;28;20115;-69
2022/07/01 12:15:41;;;;;;;10.18;7.28;;;;;;;-143.10;100.00;51132.06;5000795;28;20089;-68
2022/07/01 12:18:30;;;;;;;13.18;7.22;;;;;;;-143.10;100.00;51135.97;5026622;28;20049;-70
2022/07/01 12:21:19;;;;;;;11.20;6.47;;;;;;;-143.10;100.00;51132.06;5026201;28;20103;-69
2022/07/01 12:24:15;;;;;;;11.10;6.35;;;;;;;-143.10;99.31;51116.41;5026860;28;20046;-69
2022/07/01 12:27:07;;;;;;;9.37;6.53;;;;;;;-143.10;100.00;51161.44;5026856;28;20493;-69
2022/07/01 12:29:52;;;;;;;9.82;7.15;;;;;;;-143.10;100.00;51126.19;5026620;28;20049;-69
2022/07/01 12:32:46;;;;;;;9.40;6.60;;;;;;;-143.10;100.00;51130.09;5039955;28;20425;-69
2022/07/01 12:35:42;;;;;;;10.35;6.60;;;;;;;-143.10;100.00;51139.91;5045416;28;20142;-68
2022/07/01 12:38:24;;;;;;;11.10;6.60;;;;;;;-143.10;100.00;51120.31;5044475;28;20094;-70
2022/07/01 12:41:29;;;;;;;12.02;6.90;;;;;;;-143.10;100.00;51116.41;5027352;28;20040;-69